sensor_id;sensor_type;location;lat;lon;timestamp;P1;durP1;ratioP1;P2;durP2;ratioP2
41667;SDS011;27356;50.920;5.350;2023-05-10T00:01:25;8.60;;;6.15;;
41667;SDS011;27356;50.920;5.350;2023-05-10T00:03:50;8.35;;;7.13;;
41667;SDS011;27356;50.920;5.350;2023-05-10T00:06:16;8.90;;;6.70;;
41667;SDS011;27356;50.920;5.350;2023-05-10T00:08:42;7.25;;;6.38;;
41667;SDS011;27356;50.920;5.350;2023-05-10T00:11:08;7.55;;;6.75;;
41667;SDS011;27356;50.920;5.350;2023-05-10T00:13:33;10.68;;;6.57;;
41667;SDS011;27356;50.920;5.350;2023-05-10T00:15:59;9.13;;;7.32;;
41667;SDS011;27356;50.920;5.350;2023-05-10T00:18:24;11.65;;;7.13;;
41667;SDS011;27356;50.920;5.350;2023-05-10T00:20:50;9.82;;;8.40;;
41667;SDS011;27356;50.920;5.350;2023-05-10T00:23:16;13.32;;;10.05;;
41667;SDS011;27356;50.920;5.350;2023-05-10T00:25:42;10.30;;;8.30;;
41667;SDS011;27356;50.920;5.350;2023-05-10T00:28:07;9.70;;;8.73;;
41667;SDS011;27356;50.920;5.350;2023-05-10T00:30:33;12.30;;;8.45;;
41667;SDS011;27356;50.920;5.350;2023-05-10T00:32:59;9.13;;;8.02;;
41667;SDS011;27356;50.920;5.350;2023-05-10T00:35:25;9.75;;;7.13;;
41667;SDS011;27356;50.920;5.350;2023-05-10T00:37:51;9.18;;;6.65;;
41667;SDS011;27356;50.920;5.350;2023-05-10T00:40:16;8.23;;;7.45;;
41667;SDS011;27356;50.920;5.350;2023-05-10T00:42:42;11.98;;;6.97;;
41667;SDS011;27356;50.920;5.350;2023-05-10T00:45:08;11.95;;;8.23;;
41667;SDS011;27356;50.920;5.350;2023-05-10T00:47:34;9.10;;;6.78;;
41667;SDS011;27356;50.920;5.350;2023-05-10T00:49:59;10.48;;;6.95;;
41667;SDS011;27356;50.920;5.350;2023-05-10T00:52:26;9.38;;;7.32;;
41667;SDS011;27356;50.920;5.350;2023-05-10T00:54:52;7.13;;;6.43;;
41667;SDS011;27356;50.920;5.350;2023-05-10T00:57:19;6.72;;;5.88;;
41667;SDS011;27356;50.920;5.350;2023-05-10T00:59:45;7.20;;;6.50;;
41667;SDS011;27356;50.920;5.350;2023-05-10T01:02:11;9.77;;;6.93;;
41667;SDS011;27356;50.920;5.350;2023-05-10T01:04:38;9.60;;;6.57;;
41667;SDS011;27356;50.920;5.350;2023-05-10T01:07:04;11.77;;;6.78;;
41667;SDS011;27356;50.920;5.350;2023-05-10T01:09:30;8.13;;;6.38;;
41667;SDS011;27356;50.920;5.350;2023-05-10T01:11:56;11.20;;;6.47;;
41667;SDS011;27356;50.920;5.350;2023-05-10T01:14:23;10.23;;;6.30;;
41667;SDS011;27356;50.920;5.350;2023-05-10T01:16:49;7.70;;;5.90;;
41667;SDS011;27356;50.920;5.350;2023-05-10T01:19:19;12.40;;;6.00;;
41667;SDS011;27356;50.920;5.350;2023-05-10T01:32:32;12.15;;;6.60;;
41667;SDS011;27356;50.920;5.350;2023-05-10T01:35:43;11.57;;;6.43;;
41667;SDS011;27356;50.920;5.350;2023-05-10T01:38:17;11.05;;;6.88;;
41667;SDS011;27356;50.920;5.350;2023-05-10T01:41:04;8.60;;;5.93;;
41667;SDS011;27356;50.920;5.350;2023-05-10T01:46:48;10.77;;;6.72;;
41667;SDS011;27356;50.920;5.350;2023-05-10T01:49:22;9.48;;;6.05;;
41667;SDS011;27356;50.920;5.350;2023-05-10T01:51:51;9.55;;;6.82;;
41667;SDS011;27356;50.920;5.350;2023-05-10T01:54:22;16.25;;;7.70;;
41667;SDS011;27356;50.920;5.350;2023-05-10T01:56:50;8.88;;;6.93;;
41667;SDS011;27356;50.920;5.350;2023-05-10T01:59:22;13.55;;;7.35;;
41667;SDS011;27356;50.920;5.350;2023-05-10T02:01:52;9.70;;;6.95;;
41667;SDS011;27356;50.920;5.350;2023-05-10T02:04:21;11.82;;;7.95;;
41667;SDS011;27356;50.920;5.350;2023-05-10T02:06:48;9.85;;;6.53;;
41667;SDS011;27356;50.920;5.350;2023-05-10T02:09:16;11.77;;;6.85;;
41667;SDS011;27356;50.920;5.350;2023-05-10T02:11:43;13.05;;;7.28;;
41667;SDS011;27356;50.920;5.350;2023-05-10T02:14:09;12.68;;;7.32;;
41667;SDS011;27356;50.920;5.350;2023-05-10T02:16:37;11.65;;;7.00;;
41667;SDS011;27356;50.920;5.350;2023-05-10T02:19:03;14.85;;;7.00;;
41667;SDS011;27356;50.920;5.350;2023-05-10T02:21:30;12.25;;;6.88;;
41667;SDS011;27356;50.920;5.350;2023-05-10T02:23:57;12.05;;;7.85;;
41667;SDS011;27356;50.920;5.350;2023-05-10T02:26:26;13.38;;;7.30;;
41667;SDS011;27356;50.920;5.350;2023-05-10T02:28:53;13.35;;;7.85;;
41667;SDS011;27356;50.920;5.350;2023-05-10T02:31:21;16.45;;;7.75;;
41667;SDS011;27356;50.920;5.350;2023-05-10T02:33:47;10.30;;;7.07;;
41667;SDS011;27356;50.920;5.350;2023-05-10T02:36:14;12.15;;;8.15;;
41667;SDS011;27356;50.920;5.350;2023-05-10T02:38:41;11.98;;;7.57;;
41667;SDS011;27356;50.920;5.350;2023-05-10T02:41:08;17.70;;;8.00;;
41667;SDS011;27356;50.920;5.350;2023-05-10T02:43:36;13.65;;;8.32;;
41667;SDS011;27356;50.920;5.350;2023-05-10T02:46:04;15.20;;;7.78;;
41667;SDS011;27356;50.920;5.350;2023-05-10T02:48:30;14.88;;;7.32;;
41667;SDS011;27356;50.920;5.350;2023-05-10T02:50:56;15.07;;;7.82;;
41667;SDS011;27356;50.920;5.350;2023-05-10T02:53:35;13.23;;;7.25;;
41667;SDS011;27356;50.920;5.350;2023-05-10T02:56:04;14.45;;;6.32;;
41667;SDS011;27356;50.920;5.350;2023-05-10T02:58:34;13.95;;;7.97;;
41667;SDS011;27356;50.920;5.350;2023-05-10T03:01:00;11.25;;;7.18;;
41667;SDS011;27356;50.920;5.350;2023-05-10T03:03:26;12.45;;;7.65;;
41667;SDS011;27356;50.920;5.350;2023-05-10T03:05:51;11.57;;;7.15;;
41667;SDS011;27356;50.920;5.350;2023-05-10T03:08:20;12.65;;;7.50;;
41667;SDS011;27356;50.920;5.350;2023-05-10T03:11:19;14.20;;;7.60;;
41667;SDS011;27356;50.920;5.350;2023-05-10T03:16:46;17.00;;;8.13;;
41667;SDS011;27356;50.920;5.350;2023-05-10T03:21:50;14.95;;;7.65;;
41667;SDS011;27356;50.920;5.350;2023-05-10T03:24:19;15.50;;;8.32;;
41667;SDS011;27356;50.920;5.350;2023-05-10T03:26:48;16.88;;;8.10;;
41667;SDS011;27356;50.920;5.350;2023-05-10T03:29:15;12.35;;;8.30;;
41667;SDS011;27356;50.920;5.350;2023-05-10T03:31:42;13.50;;;8.52;;
41667;SDS011;27356;50.920;5.350;2023-05-10T03:34:08;17.80;;;8.18;;
41667;SDS011;27356;50.920;5.350;2023-05-10T03:36:34;15.55;;;8.95;;
41667;SDS011;27356;50.920;5.350;2023-05-10T03:39:00;14.60;;;8.20;;
41667;SDS011;27356;50.920;5.350;2023-05-10T03:41:25;17.17;;;9.38;;
41667;SDS011;27356;50.920;5.350;2023-05-10T03:43:51;15.35;;;8.90;;
41667;SDS011;27356;50.920;5.350;2023-05-10T03:46:17;12.88;;;8.23;;
41667;SDS011;27356;50.920;5.350;2023-05-10T03:48:42;16.63;;;9.40;;
41667;SDS011;27356;50.920;5.350;2023-05-10T03:51:08;14.95;;;8.55;;
41667;SDS011;27356;50.920;5.350;2023-05-10T03:53:34;17.20;;;9.18;;
41667;SDS011;27356;50.920;5.350;2023-05-10T03:56:00;13.55;;;9.13;;
41667;SDS011;27356;50.920;5.350;2023-05-10T03:58:26;15.52;;;9.00;;
41667;SDS011;27356;50.920;5.350;2023-05-10T04:00:51;15.02;;;8.80;;
41667;SDS011;27356;50.920;5.350;2023-05-10T04:03:17;18.25;;;9.13;;
41667;SDS011;27356;50.920;5.350;2023-05-10T04:05:43;19.80;;;9.48;;
41667;SDS011;27356;50.920;5.350;2023-05-10T04:08:09;18.52;;;9.93;;
41667;SDS011;27356;50.920;5.350;2023-05-10T04:10:34;18.15;;;9.60;;
41667;SDS011;27356;50.920;5.350;2023-05-10T04:13:00;16.38;;;8.95;;
41667;SDS011;27356;50.920;5.350;2023-05-10T04:15:26;19.15;;;9.88;;
41667;SDS011;27356;50.920;5.350;2023-05-10T04:17:51;21.45;;;10.65;;
41667;SDS011;27356;50.920;5.350;2023-05-10T04:20:18;18.80;;;10.35;;
41667;SDS011;27356;50.920;5.350;2023-05-10T04:22:44;20.35;;;10.40;;
41667;SDS011;27356;50.920;5.350;2023-05-10T04:25:09;14.52;;;9.32;;
41667;SDS011;27356;50.920;5.350;2023-05-10T04:27:35;17.67;;;9.63;;
41667;SDS011;27356;50.920;5.350;2023-05-10T04:30:01;21.05;;;10.20;;
41667;SDS011;27356;50.920;5.350;2023-05-10T04:32:27;16.42;;;10.70;;
41667;SDS011;27356;50.920;5.350;2023-05-10T04:34:53;16.02;;;10.00;;
41667;SDS011;27356;50.920;5.350;2023-05-10T04:37:18;17.80;;;11.02;;
41667;SDS011;27356;50.920;5.350;2023-05-10T04:39:46;22.77;;;12.20;;
41667;SDS011;27356;50.920;5.350;2023-05-10T04:42:11;26.63;;;11.55;;
41667;SDS011;27356;50.920;5.350;2023-05-10T04:44:39;21.63;;;11.57;;
41667;SDS011;27356;50.920;5.350;2023-05-10T04:47:05;22.13;;;12.00;;
41667;SDS011;27356;50.920;5.350;2023-05-10T04:49:31;17.38;;;11.20;;
41667;SDS011;27356;50.920;5.350;2023-05-10T04:51:57;18.52;;;12.15;;
41667;SDS011;27356;50.920;5.350;2023-05-10T04:54:22;24.70;;;13.05;;
41667;SDS011;27356;50.920;5.350;2023-05-10T04:56:48;19.13;;;12.65;;
41667;SDS011;27356;50.920;5.350;2023-05-10T04:59:14;19.20;;;11.43;;
41667;SDS011;27356;50.920;5.350;2023-05-10T05:01:40;18.20;;;10.95;;
41667;SDS011;27356;50.920;5.350;2023-05-10T05:04:05;24.90;;;12.48;;
41667;SDS011;27356;50.920;5.350;2023-05-10T05:06:31;22.48;;;12.45;;
41667;SDS011;27356;50.920;5.350;2023-05-10T05:08:57;23.85;;;11.55;;
41667;SDS011;27356;50.920;5.350;2023-05-10T05:11:23;22.50;;;12.30;;
41667;SDS011;27356;50.920;5.350;2023-05-10T05:13:50;20.02;;;11.68;;
41667;SDS011;27356;50.920;5.350;2023-05-10T05:16:16;24.75;;;13.10;;
41667;SDS011;27356;50.920;5.350;2023-05-10T05:18:41;24.85;;;13.02;;
41667;SDS011;27356;50.920;5.350;2023-05-10T05:21:16;30.15;;;13.30;;
41667;SDS011;27356;50.920;5.350;2023-05-10T05:23:43;26.63;;;13.23;;
41667;SDS011;27356;50.920;5.350;2023-05-10T05:26:09;29.88;;;13.82;;
41667;SDS011;27356;50.920;5.350;2023-05-10T05:28:35;24.52;;;14.18;;
41667;SDS011;27356;50.920;5.350;2023-05-10T05:31:05;27.38;;;14.52;;
41667;SDS011;27356;50.920;5.350;2023-05-10T05:33:32;29.55;;;13.32;;
41667;SDS011;27356;50.920;5.350;2023-05-10T05:36:02;32.50;;;13.50;;
41667;SDS011;27356;50.920;5.350;2023-05-10T05:38:29;26.63;;;14.10;;
41667;SDS011;27356;50.920;5.350;2023-05-10T05:40:55;25.75;;;14.15;;
41667;SDS011;27356;50.920;5.350;2023-05-10T05:43:20;25.35;;;13.80;;
41667;SDS011;27356;50.920;5.350;2023-05-10T05:45:46;32.25;;;15.10;;
41667;SDS011;27356;50.920;5.350;2023-05-10T05:48:12;33.78;;;14.98;;
41667;SDS011;27356;50.920;5.350;2023-05-10T05:50:37;38.92;;;16.02;;
41667;SDS011;27356;50.920;5.350;2023-05-10T05:53:03;36.03;;;15.93;;
41667;SDS011;27356;50.920;5.350;2023-05-10T05:55:29;30.27;;;15.85;;
41667;SDS011;27356;50.920;5.350;2023-05-10T05:57:56;33.20;;;15.88;;
41667;SDS011;27356;50.920;5.350;2023-05-10T06:00:22;38.75;;;16.83;;
41667;SDS011;27356;50.920;5.350;2023-05-10T06:02:48;38.47;;;16.60;;
41667;SDS011;27356;50.920;5.350;2023-05-10T06:05:14;40.22;;;17.25;;
41667;SDS011;27356;50.920;5.350;2023-05-10T06:07:39;38.58;;;17.55;;
41667;SDS011;27356;50.920;5.350;2023-05-10T06:10:10;35.60;;;16.63;;
41667;SDS011;27356;50.920;5.350;2023-05-10T06:12:35;37.38;;;16.17;;
41667;SDS011;27356;50.920;5.350;2023-05-10T06:15:01;31.67;;;16.70;;
41667;SDS011;27356;50.920;5.350;2023-05-10T06:17:27;33.85;;;16.58;;
41667;SDS011;27356;50.920;5.350;2023-05-10T06:19:53;34.13;;;16.25;;
41667;SDS011;27356;50.920;5.350;2023-05-10T06:22:19;39.22;;;18.95;;
41667;SDS011;27356;50.920;5.350;2023-05-10T06:24:46;36.08;;;18.50;;
41667;SDS011;27356;50.920;5.350;2023-05-10T06:27:12;39.63;;;18.48;;
41667;SDS011;27356;50.920;5.350;2023-05-10T06:29:38;41.47;;;20.05;;
41667;SDS011;27356;50.920;5.350;2023-05-10T06:32:04;41.90;;;20.55;;
41667;SDS011;27356;50.920;5.350;2023-05-10T06:34:30;50.33;;;20.13;;
41667;SDS011;27356;50.920;5.350;2023-05-10T06:36:56;40.58;;;19.45;;
41667;SDS011;27356;50.920;5.350;2023-05-10T06:39:22;42.47;;;19.25;;
41667;SDS011;27356;50.920;5.350;2023-05-10T06:41:47;43.67;;;19.58;;
41667;SDS011;27356;50.920;5.350;2023-05-10T06:44:13;43.95;;;19.83;;
41667;SDS011;27356;50.920;5.350;2023-05-10T06:46:39;49.75;;;19.27;;
41667;SDS011;27356;50.920;5.350;2023-05-10T06:49:06;45.85;;;19.90;;
41667;SDS011;27356;50.920;5.350;2023-05-10T06:51:32;43.58;;;19.20;;
41667;SDS011;27356;50.920;5.350;2023-05-10T06:53:57;43.83;;;17.55;;
41667;SDS011;27356;50.920;5.350;2023-05-10T06:56:23;40.72;;;17.55;;
41667;SDS011;27356;50.920;5.350;2023-05-10T06:58:49;42.47;;;18.60;;
41667;SDS011;27356;50.920;5.350;2023-05-10T07:01:14;38.72;;;17.75;;
41667;SDS011;27356;50.920;5.350;2023-05-10T07:03:40;38.92;;;17.55;;
41667;SDS011;27356;50.920;5.350;2023-05-10T07:06:06;40.45;;;17.38;;
41667;SDS011;27356;50.920;5.350;2023-05-10T07:08:32;43.42;;;18.15;;
41667;SDS011;27356;50.920;5.350;2023-05-10T07:10:59;37.15;;;17.20;;
41667;SDS011;27356;50.920;5.350;2023-05-10T07:13:30;38.08;;;17.33;;
41667;SDS011;27356;50.920;5.350;2023-05-10T07:15:56;42.00;;;18.45;;
41667;SDS011;27356;50.920;5.350;2023-05-10T07:18:23;35.30;;;17.40;;
41667;SDS011;27356;50.920;5.350;2023-05-10T07:20:49;35.72;;;19.00;;
41667;SDS011;27356;50.920;5.350;2023-05-10T07:23:15;35.97;;;16.70;;
41667;SDS011;27356;50.920;5.350;2023-05-10T07:25:44;32.60;;;16.42;;
41667;SDS011;27356;50.920;5.350;2023-05-10T07:28:14;29.35;;;15.73;;
41667;SDS011;27356;50.920;5.350;2023-05-10T07:30:40;30.35;;;16.50;;
41667;SDS011;27356;50.920;5.350;2023-05-10T07:33:06;34.38;;;17.17;;
41667;SDS011;27356;50.920;5.350;2023-05-10T07:35:34;31.80;;;17.27;;
41667;SDS011;27356;50.920;5.350;2023-05-10T07:38:00;27.08;;;15.98;;
41667;SDS011;27356;50.920;5.350;2023-05-10T07:40:26;29.00;;;16.63;;
41667;SDS011;27356;50.920;5.350;2023-05-10T07:42:53;33.60;;;16.10;;
41667;SDS011;27356;50.920;5.350;2023-05-10T07:45:18;32.42;;;16.23;;
41667;SDS011;27356;50.920;5.350;2023-05-10T07:47:44;29.38;;;15.60;;
41667;SDS011;27356;50.920;5.350;2023-05-10T07:50:10;28.38;;;15.50;;
41667;SDS011;27356;50.920;5.350;2023-05-10T07:52:36;23.77;;;15.07;;
41667;SDS011;27356;50.920;5.350;2023-05-10T07:55:02;22.88;;;13.68;;
41667;SDS011;27356;50.920;5.350;2023-05-10T07:57:27;25.95;;;13.57;;
41667;SDS011;27356;50.920;5.350;2023-05-10T07:59:53;22.27;;;14.00;;
41667;SDS011;27356;50.920;5.350;2023-05-10T08:02:19;21.52;;;12.65;;
41667;SDS011;27356;50.920;5.350;2023-05-10T08:04:44;9.85;;;7.10;;
41667;SDS011;27356;50.920;5.350;2023-05-10T08:07:10;6.00;;;4.47;;
41667;SDS011;27356;50.920;5.350;2023-05-10T08:09:36;3.30;;;3.00;;
41667;SDS011;27356;50.920;5.350;2023-05-10T08:12:02;3.60;;;2.67;;
41667;SDS011;27356;50.920;5.350;2023-05-10T08:14:28;2.80;;;1.95;;
41667;SDS011;27356;50.920;5.350;2023-05-10T08:16:54;2.95;;;2.10;;
41667;SDS011;27356;50.920;5.350;2023-05-10T08:19:21;2.22;;;1.40;;
41667;SDS011;27356;50.920;5.350;2023-05-10T08:21:48;2.05;;;1.88;;
41667;SDS011;27356;50.920;5.350;2023-05-10T08:24:14;1.58;;;1.48;;
41667;SDS011;27356;50.920;5.350;2023-05-10T08:26:39;1.95;;;1.45;;
41667;SDS011;27356;50.920;5.350;2023-05-10T08:29:05;1.35;;;0.93;;
41667;SDS011;27356;50.920;5.350;2023-05-10T08:31:31;1.50;;;1.00;;
41667;SDS011;27356;50.920;5.350;2023-05-10T08:33:57;5.05;;;1.38;;
41667;SDS011;27356;50.920;5.350;2023-05-10T08:36:23;1.10;;;1.00;;
41667;SDS011;27356;50.920;5.350;2023-05-10T08:38:52;2.10;;;1.63;;
41667;SDS011;27356;50.920;5.350;2023-05-10T08:41:22;2.05;;;1.30;;
41667;SDS011;27356;50.920;5.350;2023-05-10T08:43:51;2.10;;;1.90;;
41667;SDS011;27356;50.920;5.350;2023-05-10T08:46:18;3.70;;;1.90;;
41667;SDS011;27356;50.920;5.350;2023-05-10T08:48:45;1.92;;;1.80;;
41667;SDS011;27356;50.920;5.350;2023-05-10T08:51:15;1.75;;;1.65;;
41667;SDS011;27356;50.920;5.350;2023-05-10T08:53:44;2.60;;;1.83;;
41667;SDS011;27356;50.920;5.350;2023-05-10T08:56:10;4.65;;;1.90;;
41667;SDS011;27356;50.920;5.350;2023-05-10T08:58:36;2.83;;;2.10;;
41667;SDS011;27356;50.920;5.350;2023-05-10T09:01:02;2.67;;;2.10;;
41667;SDS011;27356;50.920;5.350;2023-05-10T09:03:30;3.28;;;2.00;;
41667;SDS011;27356;50.920;5.350;2023-05-10T09:05:57;2.45;;;2.25;;
41667;SDS011;27356;50.920;5.350;2023-05-10T09:08:23;3.78;;;2.20;;
41667;SDS011;27356;50.920;5.350;2023-05-10T09:10:52;2.33;;;2.15;;
41667;SDS011;27356;50.920;5.350;2023-05-10T09:13:19;4.35;;;2.40;;
41667;SDS011;27356;50.920;5.350;2023-05-10T09:15:46;3.65;;;2.83;;
41667;SDS011;27356;50.920;5.350;2023-05-10T09:18:13;5.18;;;2.60;;
41667;SDS011;27356;50.920;5.350;2023-05-10T09:20:39;2.63;;;2.40;;
41667;SDS011;27356;50.920;5.350;2023-05-10T09:23:05;3.50;;;3.05;;
41667;SDS011;27356;50.920;5.350;2023-05-10T09:25:32;3.85;;;2.83;;
41667;SDS011;27356;50.920;5.350;2023-05-10T09:28:02;4.35;;;3.08;;
41667;SDS011;27356;50.920;5.350;2023-05-10T09:30:32;4.50;;;2.92;;
41667;SDS011;27356;50.920;5.350;2023-05-10T09:32:58;6.60;;;2.90;;
41667;SDS011;27356;50.920;5.350;2023-05-10T09:35:26;3.45;;;2.67;;
41667;SDS011;27356;50.920;5.350;2023-05-10T09:37:53;3.00;;;2.70;;
41667;SDS011;27356;50.920;5.350;2023-05-10T09:40:26;3.38;;;2.80;;
41667;SDS011;27356;50.920;5.350;2023-05-10T09:45:20;3.38;;;3.08;;
41667;SDS011;27356;50.920;5.350;2023-05-10T09:47:47;4.03;;;2.78;;
41667;SDS011;27356;50.920;5.350;2023-05-10T09:50:13;3.75;;;2.83;;
41667;SDS011;27356;50.920;5.350;2023-05-10T09:55:18;3.83;;;3.13;;
41667;SDS011;27356;50.920;5.350;2023-05-10T09:57:47;3.55;;;2.88;;
41667;SDS011;27356;50.920;5.350;2023-05-10T10:00:20;5.65;;;3.85;;
41667;SDS011;27356;50.920;5.350;2023-05-10T10:03:11;3.53;;;3.22;;
41667;SDS011;27356;50.920;5.350;2023-05-10T10:05:36;5.10;;;3.85;;
41667;SDS011;27356;50.920;5.350;2023-05-10T10:08:06;4.68;;;3.95;;
41667;SDS011;27356;50.920;5.350;2023-05-10T10:10:33;5.25;;;4.20;;
41667;SDS011;27356;50.920;5.350;2023-05-10T10:13:00;8.95;;;4.50;;
41667;SDS011;27356;50.920;5.350;2023-05-10T10:15:27;6.93;;;5.15;;
41667;SDS011;27356;50.920;5.350;2023-05-10T10:17:53;4.63;;;4.20;;
41667;SDS011;27356;50.920;5.350;2023-05-10T10:20:19;5.53;;;4.85;;
41667;SDS011;27356;50.920;5.350;2023-05-10T10:22:46;9.00;;;5.03;;
41667;SDS011;27356;50.920;5.350;2023-05-10T10:25:15;6.57;;;5.65;;
41667;SDS011;27356;50.920;5.350;2023-05-10T10:30:20;9.50;;;6.40;;
41667;SDS011;27356;50.920;5.350;2023-05-10T10:35:48;8.25;;;6.00;;
41667;SDS011;27356;50.920;5.350;2023-05-10T10:38:14;7.68;;;5.82;;
41667;SDS011;27356;50.920;5.350;2023-05-10T10:40:41;8.10;;;5.70;;
41667;SDS011;27356;50.920;5.350;2023-05-10T10:43:26;7.30;;;5.82;;
41667;SDS011;27356;50.920;5.350;2023-05-10T10:46:09;6.65;;;5.00;;
41667;SDS011;27356;50.920;5.350;2023-05-10T10:48:36;6.68;;;5.53;;
41667;SDS011;27356;50.920;5.350;2023-05-10T10:51:02;7.50;;;5.30;;
41667;SDS011;27356;50.920;5.350;2023-05-10T10:53:28;7.82;;;5.82;;
41667;SDS011;27356;50.920;5.350;2023-05-10T10:58:34;6.50;;;4.30;;
41667;SDS011;27356;50.920;5.350;2023-05-10T11:01:14;6.40;;;4.25;;
41667;SDS011;27356;50.920;5.350;2023-05-10T11:03:41;4.97;;;4.50;;
41667;SDS011;27356;50.920;5.350;2023-05-10T11:06:40;7.47;;;4.65;;
41667;SDS011;27356;50.920;5.350;2023-05-10T11:09:08;8.10;;;4.03;;
41667;SDS011;27356;50.920;5.350;2023-05-10T11:11:35;6.30;;;3.90;;
41667;SDS011;27356;50.920;5.350;2023-05-10T11:14:13;3.85;;;3.45;;
41667;SDS011;27356;50.920;5.350;2023-05-10T11:16:42;4.75;;;3.78;;
41667;SDS011;27356;50.920;5.350;2023-05-10T11:19:10;6.40;;;3.83;;
41667;SDS011;27356;50.920;5.350;2023-05-10T11:24:31;4.32;;;3.55;;
41667;SDS011;27356;50.920;5.350;2023-05-10T11:26:56;3.78;;;3.10;;
41667;SDS011;27356;50.920;5.350;2023-05-10T11:29:22;3.38;;;2.85;;
41667;SDS011;27356;50.920;5.350;2023-05-10T11:31:48;3.42;;;3.13;;
41667;SDS011;27356;50.920;5.350;2023-05-10T11:34:30;3.70;;;2.95;;
41667;SDS011;27356;50.920;5.350;2023-05-10T11:36:58;3.10;;;2.90;;
41667;SDS011;27356;50.920;5.350;2023-05-10T11:39:28;2.97;;;2.78;;
41667;SDS011;27356;50.920;5.350;2023-05-10T11:41:56;3.83;;;2.70;;
41667;SDS011;27356;50.920;5.350;2023-05-10T11:44:22;3.08;;;2.78;;
41667;SDS011;27356;50.920;5.350;2023-05-10T11:46:48;3.38;;;2.97;;
41667;SDS011;27356;50.920;5.350;2023-05-10T11:49:14;4.18;;;2.53;;
41667;SDS011;27356;50.920;5.350;2023-05-10T11:51:40;3.13;;;2.63;;
41667;SDS011;27356;50.920;5.350;2023-05-10T11:54:09;3.55;;;2.95;;
41667;SDS011;27356;50.920;5.350;2023-05-10T11:56:39;2.97;;;2.50;;
41667;SDS011;27356;50.920;5.350;2023-05-10T11:59:05;3.50;;;3.17;;
41667;SDS011;27356;50.920;5.350;2023-05-10T12:01:32;4.50;;;2.90;;
41667;SDS011;27356;50.920;5.350;2023-05-10T12:03:59;3.25;;;2.45;;
41667;SDS011;27356;50.920;5.350;2023-05-10T12:06:32;2.97;;;2.10;;
41667;SDS011;27356;50.920;5.350;2023-05-10T12:09:05;2.65;;;2.13;;
41667;SDS011;27356;50.920;5.350;2023-05-10T12:11:35;2.58;;;2.38;;
41667;SDS011;27356;50.920;5.350;2023-05-10T12:14:04;2.33;;;2.13;;
41667;SDS011;27356;50.920;5.350;2023-05-10T12:16:30;2.72;;;2.35;;
41667;SDS011;27356;50.920;5.350;2023-05-10T12:18:57;2.13;;;1.70;;
41667;SDS011;27356;50.920;5.350;2023-05-10T12:21:23;1.80;;;1.70;;
41667;SDS011;27356;50.920;5.350;2023-05-10T12:23:50;2.67;;;1.95;;
41667;SDS011;27356;50.920;5.350;2023-05-10T12:26:17;2.95;;;1.80;;
41667;SDS011;27356;50.920;5.350;2023-05-10T12:28:43;2.17;;;1.55;;
41667;SDS011;27356;50.920;5.350;2023-05-10T12:31:09;4.15;;;2.20;;
41667;SDS011;27356;50.920;5.350;2023-05-10T12:33:39;3.08;;;1.80;;
41667;SDS011;27356;50.920;5.350;2023-05-10T12:36:08;1.63;;;1.52;;
41667;SDS011;27356;50.920;5.350;2023-05-10T12:38:38;2.28;;;1.85;;
41667;SDS011;27356;50.920;5.350;2023-05-10T12:41:17;2.28;;;1.65;;
41667;SDS011;27356;50.920;5.350;2023-05-10T12:43:44;2.22;;;2.05;;
41667;SDS011;27356;50.920;5.350;2023-05-10T12:46:14;3.28;;;2.17;;
41667;SDS011;27356;50.920;5.350;2023-05-10T12:48:42;1.77;;;1.60;;
41667;SDS011;27356;50.920;5.350;2023-05-10T12:51:09;2.30;;;1.70;;
41667;SDS011;27356;50.920;5.350;2023-05-10T12:53:37;1.90;;;1.80;;
41667;SDS011;27356;50.920;5.350;2023-05-10T12:56:03;2.08;;;1.65;;
41667;SDS011;27356;50.920;5.350;2023-05-10T12:58:29;1.63;;;1.42;;
41667;SDS011;27356;50.920;5.350;2023-05-10T13:00:55;1.73;;;1.42;;
41667;SDS011;27356;50.920;5.350;2023-05-10T13:03:21;2.13;;;1.25;;
41667;SDS011;27356;50.920;5.350;2023-05-10T13:05:47;1.90;;;1.67;;
41667;SDS011;27356;50.920;5.350;2023-05-10T13:08:13;2.40;;;1.30;;
41667;SDS011;27356;50.920;5.350;2023-05-10T13:10:39;1.38;;;1.23;;
41667;SDS011;27356;50.920;5.350;2023-05-10T13:13:05;1.60;;;1.50;;
41667;SDS011;27356;50.920;5.350;2023-05-10T13:15:32;2.55;;;1.92;;
41667;SDS011;27356;50.920;5.350;2023-05-10T13:17:58;3.00;;;1.45;;
41667;SDS011;27356;50.920;5.350;2023-05-10T13:20:24;2.05;;;1.35;;
41667;SDS011;27356;50.920;5.350;2023-05-10T13:22:50;2.85;;;1.27;;
41667;SDS011;27356;50.920;5.350;2023-05-10T13:25:16;5.40;;;1.92;;
41667;SDS011;27356;50.920;5.350;2023-05-10T13:27:41;7.72;;;1.95;;
41667;SDS011;27356;50.920;5.350;2023-05-10T13:30:08;1.67;;;1.20;;
41667;SDS011;27356;50.920;5.350;2023-05-10T13:32:34;1.10;;;1.10;;
41667;SDS011;27356;50.920;5.350;2023-05-10T13:35:01;1.50;;;1.17;;
41667;SDS011;27356;50.920;5.350;2023-05-10T13:37:28;1.52;;;1.42;;
41667;SDS011;27356;50.920;5.350;2023-05-10T13:39:54;1.30;;;1.15;;
41667;SDS011;27356;50.920;5.350;2023-05-10T13:42:21;0.85;;;0.85;;
41667;SDS011;27356;50.920;5.350;2023-05-10T13:44:48;2.88;;;0.80;;
41667;SDS011;27356;50.920;5.350;2023-05-10T13:47:14;0.90;;;0.90;;
41667;SDS011;27356;50.920;5.350;2023-05-10T13:49:39;1.75;;;0.90;;
41667;SDS011;27356;50.920;5.350;2023-05-10T13:52:05;3.25;;;1.25;;
41667;SDS011;27356;50.920;5.350;2023-05-10T13:54:38;3.33;;;1.05;;
41667;SDS011;27356;50.920;5.350;2023-05-10T13:57:04;0.80;;;0.80;;
41667;SDS011;27356;50.920;5.350;2023-05-10T13:59:30;0.80;;;0.80;;
41667;SDS011;27356;50.920;5.350;2023-05-10T14:01:59;3.45;;;1.33;;
41667;SDS011;27356;50.920;5.350;2023-05-10T14:04:25;0.90;;;0.90;;
41667;SDS011;27356;50.920;5.350;2023-05-10T14:06:51;0.95;;;0.95;;
41667;SDS011;27356;50.920;5.350;2023-05-10T14:09:17;1.75;;;1.00;;
41667;SDS011;27356;50.920;5.350;2023-05-10T14:11:43;0.93;;;0.93;;
41667;SDS011;27356;50.920;5.350;2023-05-10T14:14:09;1.38;;;1.27;;
41667;SDS011;27356;50.920;5.350;2023-05-10T14:16:35;1.40;;;1.30;;
41667;SDS011;27356;50.920;5.350;2023-05-10T14:19:01;0.80;;;0.80;;
41667;SDS011;27356;50.920;5.350;2023-05-10T14:21:27;1.85;;;1.10;;
41667;SDS011;27356;50.920;5.350;2023-05-10T14:23:56;1.05;;;0.80;;
41667;SDS011;27356;50.920;5.350;2023-05-10T14:26:22;0.60;;;0.60;;
41667;SDS011;27356;50.920;5.350;2023-05-10T14:28:47;1.55;;;0.90;;
41667;SDS011;27356;50.920;5.350;2023-05-10T14:31:13;2.97;;;0.80;;
41667;SDS011;27356;50.920;5.350;2023-05-10T14:33:39;0.60;;;0.60;;
41667;SDS011;27356;50.920;5.350;2023-05-10T14:36:06;0.80;;;0.60;;
41667;SDS011;27356;50.920;5.350;2023-05-10T14:38:32;0.55;;;0.55;;
41667;SDS011;27356;50.920;5.350;2023-05-10T14:40:58;0.52;;;0.52;;
41667;SDS011;27356;50.920;5.350;2023-05-10T14:43:23;0.80;;;0.80;;
41667;SDS011;27356;50.920;5.350;2023-05-10T14:45:49;1.02;;;0.90;;
41667;SDS011;27356;50.920;5.350;2023-05-10T14:48:15;1.30;;;1.20;;
41667;SDS011;27356;50.920;5.350;2023-05-10T14:50:42;1.30;;;1.20;;
41667;SDS011;27356;50.920;5.350;2023-05-10T14:53:08;1.60;;;1.23;;
41667;SDS011;27356;50.920;5.350;2023-05-10T14:55:34;1.52;;;1.20;;
41667;SDS011;27356;50.920;5.350;2023-05-10T14:58:01;1.10;;;1.10;;
41667;SDS011;27356;50.920;5.350;2023-05-10T15:00:28;1.23;;;1.10;;
41667;SDS011;27356;50.920;5.350;2023-05-10T15:02:54;0.60;;;0.60;;
41667;SDS011;27356;50.920;5.350;2023-05-10T15:05:20;1.05;;;0.60;;
41667;SDS011;27356;50.920;5.350;2023-05-10T15:07:46;0.77;;;0.70;;
41667;SDS011;27356;50.920;5.350;2023-05-10T15:10:12;0.90;;;0.90;;
41667;SDS011;27356;50.920;5.350;2023-05-10T15:12:39;1.42;;;1.15;;
41667;SDS011;27356;50.920;5.350;2023-05-10T15:15:05;0.90;;;0.80;;